Time;durP1;ratioP1;P1;durP2;ratioP2;P2;SDS_P1;SDS_P2;PMS_P1;PMS_P2;Temp;Humidity;BMP_temperature;BMP_pressure;BME280_temperature;BME280_humidity;BME280_pressure;Samples;Min_cycle;Max_cycle;Signal;HPM_P1;HPM_P2
2021/05/28 00:01:45;;;;;;;1.00;0.80;;;;;;;12.10;100.00;101212.44;5056829;28;20492;-70
2021/05/28 00:04:11;;;;;;;1.40;0.97;;;;;;;12.09;100.00;101213.56;5056746;28;20466;-70
2021/05/28 00:06:37;;;;;;;1.40;1.20;;;;;;;12.07;100.00;101224.69;5056694;28;20481;-70
2021/05/28 00:09:05;;;;;;;1.33;1.00;;;;;;;12.08;100.00;101222.78;5056665;28;20442;-70
2021/05/28 00:11:31;;;;;;;1.80;1.70;;;;;;;12.04;100.00;101227.19;5056591;28;20473;-70
2021/05/28 00:13:57;;;;;;;2.17;1.43;;;;;;;12.01;100.00;101235.94;5056530;28;20975;-70
2021/05/28 00:16:24;;;;;;;1.60;1.13;;;;;;;12.02;100.00;101232.13;5056559;28;20521;-70
2021/05/28 00:18:50;;;;;;;1.63;1.30;;;;;;;12.03;100.00;101239.16;5056116;28;20987;-70
2021/05/28 00:21:16;;;;;;;1.63;1.07;;;;;;;12.04;100.00;101244.31;5056450;28;20525;-70
2021/05/28 00:23:42;;;;;;;1.43;1.03;;;;;;;12.00;100.00;101242.47;5056350;28;21048;-70
2021/05/28 00:26:10;;;;;;;2.30;1.57;;;;;;;12.01;100.00;101238.66;5056371;28;20460;-70
2021/05/28 00:28:36;;;;;;;0.80;0.80;;;;;;;12.00;100.00;101245.19;5056032;28;20978;-71
2021/05/28 00:31:02;;;;;;;1.57;0.90;;;;;;;11.98;100.00;101247.38;5056013;28;20430;-71
2021/05/28 00:33:28;;;;;;;1.20;1.00;;;;;;;11.97;100.00;101243.06;5056237;28;20478;-71
2021/05/28 00:35:54;;;;;;;1.93;1.07;;;;;;;11.91;100.00;101244.22;5056157;28;20997;-71
2021/05/28 00:38:20;;;;;;;1.33;0.90;;;;;;;11.92;100.00;101249.38;5056297;28;20840;-71
2021/05/28 00:40:46;;;;;;;0.90;0.67;;;;;;;11.91;100.00;101252.34;5056138;28;20814;-71
2021/05/28 00:43:12;;;;;;;1.73;1.03;;;;;;;11.90;100.00;101261.59;5056056;28;20833;-71
2021/05/28 00:45:39;;;;;;;5.20;1.03;;;;;;;11.88;100.00;101261.09;5056021;28;20445;-71
2021/05/28 00:48:06;;;;;;;1.10;0.93;;;;;;;11.89;100.00;101260.00;5055981;28;20441;-72
2021/05/28 00:50:32;;;;;;;2.13;1.17;;;;;;;11.90;100.00;101264.31;5055920;28;20441;-70
2021/05/28 00:52:58;;;;;;;1.47;1.13;;;;;;;11.85;100.00;101262.47;5055762;28;20481;-69
2021/05/28 00:55:26;;;;;;;1.63;0.97;;;;;;;11.81;100.00;101264.13;5055854;28;20455;-71
2021/05/28 00:57:52;;;;;;;1.23;0.97;;;;;;;11.84;100.00;101263.59;5055583;28;20817;-71
2021/05/28 01:00:21;;;;;;;2.10;1.43;;;;;;;11.88;100.00;101277.38;5055548;28;20518;-70
2021/05/28 01:02:47;;;;;;;1.70;0.97;;;;;;;11.84;100.00;101269.81;5055838;28;20488;-71
2021/05/28 01:05:13;;;;;;;1.13;1.00;;;;;;;11.80;100.00;101267.97;5055873;28;20449;-70
2021/05/28 01:07:39;;;;;;;1.30;0.90;;;;;;;11.79;100.00;101278.00;5055424;28;20576;-71
2021/05/28 01:10:06;;;;;;;1.53;0.80;;;;;;;11.81;100.00;101275.78;5055535;28;20812;-71
2021/05/28 01:12:32;;;;;;;1.10;0.80;;;;;;;11.78;100.00;101268.25;5055511;28;20465;-71
2021/05/28 01:14:58;;;;;;;1.07;0.87;;;;;;;11.80;100.00;101274.19;5055481;28;21029;-70
2021/05/28 01:17:26;;;;;;;1.10;0.90;;;;;;;11.82;100.00;101287.47;5055486;28;20489;-71
2021/05/28 01:19:52;;;;;;;4.13;0.97;;;;;;;11.82;100.00;101271.16;5055275;28;20490;-70
2021/05/28 01:22:19;;;;;;;0.93;0.70;;;;;;;11.79;100.00;101286.16;5055235;28;20454;-69
2021/05/28 01:24:46;;;;;;;1.23;0.60;;;;;;;11.81;100.00;101283.94;5061798;28;20438;-72
2021/05/28 01:27:13;;;;;;;2.77;1.40;;;;;;;11.81;100.00;101275.78;5055402;28;20445;-71
2021/05/28 01:29:39;;;;;;;2.60;1.47;;;;;;;11.79;100.00;101280.72;5055228;28;20434;-71
2021/05/28 01:32:05;;;;;;;1.37;1.27;;;;;;;11.76;100.00;101281.28;5055190;28;20462;-70
2021/05/28 01:34:31;;;;;;;1.23;1.13;;;;;;;11.78;100.00;101287.25;5055135;28;20462;-71
2021/05/28 01:36:57;;;;;;;2.10;1.00;;;;;;;11.77;100.00;101291.03;5055043;28;20439;-70
2021/05/28 01:39:24;;;;;;;2.50;1.23;;;;;;;11.81;100.00;101299.41;5054922;28;20553;-70
2021/05/28 01:41:50;;;;;;;1.73;1.20;;;;;;;11.81;100.00;101302.94;5054911;28;20523;-71
2021/05/28 01:44:17;;;;;;;1.17;0.80;;;;;;;11.81;100.00;101311.09;5054530;28;20987;-71
2021/05/28 01:46:43;;;;;;;1.10;0.83;;;;;;;11.76;100.00;101296.78;5054868;28;20525;-71
2021/05/28 01:49:09;;;;;;;1.60;0.90;;;;;;;11.74;100.00;101297.09;5054832;28;20528;-70
2021/05/28 01:51:35;;;;;;;1.87;1.07;;;;;;;11.76;100.00;101305.72;5054791;28;20426;-70
2021/05/28 01:54:01;;;;;;;2.93;1.37;;;;;;;11.74;100.00;101296.28;5054208;28;20478;-70
2021/05/28 01:56:29;;;;;;;1.20;1.10;;;;;;;11.72;100.00;101304.69;5054698;28;20841;-71
2021/05/28 01:58:55;;;;;;;2.00;1.27;;;;;;;11.71;100.00;101316.66;5054526;28;20485;-71
2021/05/28 02:01:21;;;;;;;1.73;1.50;;;;;;;11.72;100.00;101314.75;5054611;28;20442;-70
2021/05/28 02:03:47;;;;;;;2.97;1.13;;;;;;;11.70;100.00;101309.63;5054334;28;20917;-70
2021/05/28 02:06:13;;;;;;;0.90;0.80;;;;;;;11.69;100.00;101316.16;5054479;28;20434;-70
2021/05/28 02:08:39;;;;;;;1.00;0.70;;;;;;;11.69;100.00;101310.72;5054416;28;20439;-71
2021/05/28 02:11:05;;;;;;;0.73;0.63;;;;;;;11.68;99.40;101311.00;5053732;28;20445;-70
2021/05/28 02:13:32;;;;;;;0.80;0.70;;;;;;;11.66;100.00;101324.84;5054248;28;20473;-71
2021/05/28 02:15:58;;;;;;;1.63;0.90;;;;;;;11.67;99.63;101320.22;5054299;28;20450;-70
2021/05/28 02:18:25;;;;;;;1.03;0.93;;;;;;;11.63;99.45;101325.44;5054156;28;21090;-70
2021/05/28 02:20:51;;;;;;;1.00;0.80;;;;;;;11.58;98.52;101322.78;5054161;28;20442;-70
2021/05/28 02:23:17;;;;;;;0.67;0.60;;;;;;;11.50;98.85;101323.41;5054134;28;20942;-70
2021/05/28 02:25:43;;;;;;;1.43;1.33;;;;;;;11.44;98.83;101324.56;5054077;28;20445;-71
2021/05/28 02:28:09;;;;;;;1.17;0.70;;;;;;;11.45;98.85;101323.47;5053922;28;20438;-70
2021/05/28 02:30:36;;;;;;;1.27;0.70;;;;;;;11.39;99.41;101330.88;5053690;28;20461;-70
2021/05/28 02:33:02;;;;;;;2.97;1.13;;;;;;;11.32;98.83;101325.78;5053869;28;20473;-71
2021/05/28 02:35:27;;;;;;;0.80;0.70;;;;;;;11.31;98.50;101326.06;5053910;28;20434;-71
2021/05/28 02:37:53;;;;;;;1.17;0.90;;;;;;;11.21;98.79;101342.44;5053872;28;20442;-71
2021/05/28 02:40:20;;;;;;;1.03;0.87;;;;;;;11.15;98.71;101338.97;5053771;28;20608;-72
2021/05/28 02:42:46;;;;;;;0.80;0.50;;;;;;;11.09;98.81;101340.13;5053762;28;20497;-72
2021/05/28 02:45:13;;;;;;;0.73;0.60;;;;;;;11.04;98.80;101332.03;5053720;28;20453;-70
2021/05/28 02:47:40;;;;;;;0.87;0.80;;;;;;;11.02;98.71;101348.59;5053712;28;20438;-71
2021/05/28 02:50:07;;;;;;;0.60;0.53;;;;;;;10.96;98.64;101335.34;5053692;28;20442;-71
2021/05/28 02:52:33;;;;;;;1.27;0.80;;;;;;;10.92;99.36;101339.72;5053500;28;20478;-71
2021/05/28 02:54:59;;;;;;;0.70;0.70;;;;;;;10.87;99.04;101337.88;5053648;28;20426;-71
2021/05/28 02:57:25;;;;;;;0.60;0.60;;;;;;;10.88;99.43;101338.66;5053553;28;20520;-72
2021/05/28 02:59:51;;;;;;;1.43;1.10;;;;;;;10.88;98.89;101350.31;5053114;28;20520;-71
2021/05/28 03:02:18;;;;;;;0.80;0.80;;;;;;;10.90;98.76;101347.34;5053395;28;20444;-71
2021/05/28 03:04:44;;;;;;;1.10;0.50;;;;;;;10.89;98.62;101351.97;5053414;28;20532;-71
2021/05/28 03:07:10;;;;;;;1.27;0.70;;;;;;;10.88;98.71;101355.75;5053417;28;20449;-71
2021/05/28 03:09:36;;;;;;;2.93;0.40;;;;;;;10.89;98.88;101359.25;5053391;28;20438;-71
2021/05/28 03:12:03;;;;;;;1.50;1.20;;;;;;;10.90;98.39;101358.19;5053531;28;20442;-72
2021/05/28 03:14:29;;;;;;;0.90;0.80;;;;;;;10.76;99.16;101353.41;5053217;28;20470;-71
2021/05/28 03:16:54;;;;;;;0.93;0.83;;;;;;;10.79;98.87;101362.88;5053261;28;20820;-70
2021/05/28 03:19:23;;;;;;;1.80;0.97;;;;;;;10.79;99.08;101369.09;5059171;28;20481;-71
2021/05/28 03:24:34;;;;;;;0.90;0.70;;;;;;;10.91;99.38;101365.22;5053002;28;20449;-71
2021/05/28 03:27:00;;;;;;;0.67;0.60;;;;;;;10.89;99.32;101375.53;5053139;28;20453;-70
2021/05/28 03:29:26;;;;;;;0.50;0.43;;;;;;;10.92;99.08;101381.19;5053076;28;20446;-70
2021/05/28 03:31:52;;;;;;;0.50;0.50;;;;;;;10.90;99.01;101382.59;5053082;28;20461;-70
2021/05/28 03:34:18;;;;;;;0.50;0.40;;;;;;;10.94;99.00;101380.94;5053232;28;20458;-70
2021/05/28 03:36:44;;;;;;;0.93;0.83;;;;;;;10.96;99.33;101384.16;5053045;28;20820;-70
2021/05/28 03:39:11;;;;;;;2.20;0.70;;;;;;;10.97;99.25;101385.75;5052959;28;20485;-70
2021/05/28 03:41:37;;;;;;;1.00;0.77;;;;;;;10.95;98.89;101387.97;5052708;28;20951;-70
2021/05/28 03:44:04;;;;;;;0.70;0.60;;;;;;;10.90;98.97;101391.53;5052959;28;20552;-70
2021/05/28 03:46:30;;;;;;;1.23;0.80;;;;;;;10.87;99.68;101386.66;5052975;28;20446;-70
2021/05/28 03:48:56;;;;;;;1.57;0.70;;;;;;;10.87;99.80;101375.81;5052705;28;20951;-70
2021/05/28 03:51:22;;;;;;;2.03;0.80;;;;;;;10.92;99.84;101391.22;5052593;28;20500;-70
2021/05/28 03:53:49;;;;;;;0.93;0.67;;;;;;;10.95;99.48;101390.66;5077015;22;20497;-64
2021/05/28 03:56:16;;;;;;;0.90;0.70;;;;;;;11.00;99.05;101401.47;5052924;28;20438;-63
2021/05/28 03:58:42;;;;;;;1.13;0.70;;;;;;;10.94;99.09;101394.47;5052767;28;20482;-63
2021/05/28 04:01:08;;;;;;;1.23;0.80;;;;;;;10.97;99.43;101385.75;5052777;28;20462;-64
2021/05/28 04:03:34;;;;;;;0.90;0.77;;;;;;;11.02;99.69;101391.97;5052663;28;20448;-63
2021/05/28 04:06:00;;;;;;;0.90;0.70;;;;;;;11.05;99.33;101393.28;5052786;28;20935;-63
2021/05/28 04:08:26;;;;;;;0.70;0.70;;;;;;;11.05;99.42;101396.81;5052480;28;21004;-63
2021/05/28 04:10:52;;;;;;;1.90;1.00;;;;;;;11.07;99.13;101391.91;5052453;28;20438;-63
2021/05/28 04:13:19;;;;;;;1.70;1.20;;;;;;;11.10;99.39;101401.38;5052407;28;20453;-64
2021/05/28 04:15:44;;;;;;;0.93;0.60;;;;;;;11.14;99.79;101397.00;5052654;28;20869;-63
2021/05/28 04:18:10;;;;;;;0.90;0.63;;;;;;;11.16;99.66;101399.44;5053015;28;20450;-64
2021/05/28 04:20:37;;;;;;;0.60;0.50;;;;;;;11.19;99.22;101399.66;5052651;28;20484;-64
2021/05/28 04:23:03;;;;;;;1.23;0.70;;;;;;;11.22;99.00;101399.09;5052578;28;20499;-64
2021/05/28 04:25:29;;;;;;;1.23;0.80;;;;;;;11.20;99.19;101401.31;5052512;28;20462;-64
2021/05/28 04:27:55;;;;;;;0.90;0.60;;;;;;;11.23;98.94;101411.56;5052632;28;20918;-64
2021/05/28 04:30:24;;;;;;;1.43;1.03;;;;;;;11.19;99.12;101415.13;5052506;28;20430;-64
2021/05/28 04:32:50;;;;;;;1.33;1.13;;;;;;;11.11;99.24;101428.22;5052528;28;20446;-64
2021/05/28 04:35:16;;;;;;;1.00;0.83;;;;;;;11.07;100.00;101423.66;5055592;28;20458;-63
2021/05/28 04:37:43;;;;;;;1.37;1.27;;;;;;;11.02;100.00;101420.94;5056218;28;20927;-63
2021/05/28 04:40:10;;;;;;;2.63;1.40;;;;;;;10.97;100.00;101419.09;5055724;28;20488;-63
2021/05/28 04:42:36;;;;;;;1.00;0.80;;;;;;;10.94;100.00;101421.59;5056027;28;20442;-64
2021/05/28 04:45:02;;;;;;;0.83;0.83;;;;;;;10.79;100.00;101419.78;5056028;28;20512;-62
2021/05/28 04:47:29;;;;;;;1.43;1.20;;;;;;;10.76;100.00;101420.34;5055746;28;20447;-64
2021/05/28 04:49:54;;;;;;;0.80;0.50;;;;;;;10.76;100.00;101423.06;5056066;28;20511;-64
2021/05/28 04:52:21;;;;;;;1.23;0.97;;;;;;;10.79;100.00;101433.31;5055603;28;20947;-63
2021/05/28 04:54:46;;;;;;;1.77;0.90;;;;;;;10.83;100.00;101432.47;5055475;28;20528;-63
2021/05/28 04:57:12;;;;;;;2.30;1.27;;;;;;;10.78;100.00;101429.81;5055966;28;20438;-63
2021/05/28 04:59:38;;;;;;;1.40;0.83;;;;;;;10.84;100.00;101441.41;5055727;28;20488;-64
2021/05/28 05:02:06;;;;;;;1.63;1.47;;;;;;;10.95;100.00;101444.88;5055697;28;20442;-64
2021/05/28 05:04:32;;;;;;;1.23;1.13;;;;;;;10.90;100.00;101434.06;5055677;28;20470;-68
2021/05/28 05:06:58;;;;;;;1.03;0.80;;;;;;;10.89;100.00;101448.69;5055663;28;20442;-65
2021/05/28 05:09:24;;;;;;;0.90;0.70;;;;;;;10.88;100.00;101450.59;5055691;28;20439;-65
2021/05/28 05:11:51;;;;;;;0.70;0.70;;;;;;;10.88;100.00;101455.22;5055567;28;20438;-63
2021/05/28 05:14:16;;;;;;;1.00;0.90;;;;;;;10.86;100.00;101450.91;5055519;28;20465;-61
2021/05/28 05:16:42;;;;;;;1.90;0.83;;;;;;;10.96;100.00;101457.34;5055469;28;20536;-62
2021/05/28 05:19:08;;;;;;;3.10;1.23;;;;;;;10.97;100.00;101451.63;5055052;28;20478;-61
2021/05/28 05:21:35;;;;;;;1.67;1.20;;;;;;;11.05;100.00;101456.44;5055307;28;20438;-60
2021/05/28 05:24:01;;;;;;;1.30;1.00;;;;;;;11.13;100.00;101459.66;5055277;28;20466;-61
2021/05/28 05:26:27;;;;;;;1.20;0.90;;;;;;;11.25;100.00;101457.41;5054988;28;20449;-61
2021/05/28 05:28:53;;;;;;;1.13;1.03;;;;;;;11.33;100.00;101465.75;5055212;28;20447;-62
2021/05/28 05:31:19;;;;;;;0.90;0.60;;;;;;;11.31;100.00;101469.81;5055225;28;20955;-61
2021/05/28 05:33:45;;;;;;;5.13;1.67;;;;;;;11.22;100.00;101475.03;5055122;28;20458;-63
2021/05/28 05:36:11;;;;;;;0.80;0.70;;;;;;;11.13;100.00;101468.59;5054901;28;20485;-62
2021/05/28 05:38:37;;;;;;;4.53;1.20;;;;;;;11.07;100.00;101475.16;5054962;28;20439;-63
2021/05/28 05:41:03;;;;;;;2.77;1.23;;;;;;;10.98;100.00;101477.66;5055112;28;20472;-62
2021/05/28 05:43:30;;;;;;;1.97;0.80;;;;;;;10.82;100.00;101476.94;5054733;28;20438;-64
2021/05/28 05:45:55;;;;;;;2.87;0.73;;;;;;;10.78;100.00;101481.28;5054007;28;20450;-63
2021/05/28 05:48:22;;;;;;;0.60;0.50;;;;;;;10.78;100.00;101475.06;5055067;28;20442;-62
2021/05/28 05:50:48;;;;;;;1.30;0.80;;;;;;;10.80;100.00;101483.72;5054855;28;20442;-63
2021/05/28 05:53:14;;;;;;;1.20;0.97;;;;;;;10.81;100.00;101477.22;5054894;28;20542;-62
2021/05/28 05:55:41;;;;;;;2.30;1.23;;;;;;;10.88;100.00;101487.75;5054372;28;20474;-62
2021/05/28 05:58:06;;;;;;;0.70;0.70;;;;;;;10.94;100.00;101486.63;5054758;28;20495;-62
2021/05/28 06:00:32;;;;;;;3.93;2.00;;;;;;;11.00;100.00;101490.94;5054615;28;20482;-62
2021/05/28 06:02:58;;;;;;;2.97;1.40;;;;;;;11.05;100.00;101490.88;5054680;28;20438;-61
2021/05/28 06:05:24;;;;;;;0.73;0.73;;;;;;;11.14;100.00;101496.53;5054485;28;20535;-63
2021/05/28 06:07:50;;;;;;;1.57;1.27;;;;;;;11.17;100.00;101499.47;5054655;28;20797;-68
2021/05/28 06:10:16;;;;;;;2.00;1.00;;;;;;;11.19;100.00;101497.28;5054512;28;20449;-65
2021/05/28 06:12:43;;;;;;;1.10;0.73;;;;;;;11.10;100.00;101497.06;5054416;28;20819;-65
2021/05/28 06:15:09;;;;;;;0.90;0.87;;;;;;;11.15;100.00;101498.13;5060288;28;20461;-65
2021/05/28 06:17:35;;;;;;;2.50;1.10;;;;;;;11.21;100.00;101502.44;5056353;28;20800;-67
2021/05/28 06:20:01;;;;;;;2.70;1.77;;;;;;;11.21;100.00;101500.53;5054290;28;20531;-66
2021/05/28 06:22:27;;;;;;;0.93;0.77;;;;;;;11.18;100.00;101511.94;5054041;28;20442;-66
2021/05/28 06:24:53;;;;;;;1.77;1.00;;;;;;;11.20;100.00;101508.94;5053768;28;20841;-66
2021/05/28 06:27:19;;;;;;;1.27;1.17;;;;;;;11.14;100.00;101505.47;5054307;28;20446;-66
2021/05/28 06:29:46;;;;;;;2.30;1.33;;;;;;;11.12;100.00;101507.66;5054181;28;20515;-66
2021/05/28 06:32:12;;;;;;;2.00;1.20;;;;;;;11.13;100.00;101503.84;5054096;28;20439;-66
2021/05/28 06:34:38;;;;;;;2.73;1.37;;;;;;;11.17;100.00;101509.53;5053949;28;20519;-66
2021/05/28 06:37:04;;;;;;;1.23;1.10;;;;;;;11.20;100.00;101504.34;5053959;28;20455;-67
2021/05/28 06:39:30;;;;;;;1.47;1.20;;;;;;;11.23;100.00;101514.63;5053602;28;20555;-66
2021/05/28 06:41:56;;;;;;;1.60;0.93;;;;;;;11.29;100.00;101509.97;5053880;28;20442;-67
2021/05/28 06:44:23;;;;;;;1.37;1.03;;;;;;;11.41;100.00;101518.53;5053864;28;20515;-66
2021/05/28 06:46:50;;;;;;;1.70;1.40;;;;;;;11.52;100.00;101522.00;5053911;28;20446;-67
2021/05/28 06:49:16;;;;;;;0.97;0.70;;;;;;;11.59;100.00;101531.41;5053795;28;20457;-66
2021/05/28 06:51:42;;;;;;;1.50;1.40;;;;;;;11.70;100.00;101524.00;5053740;28;20974;-66
2021/05/28 06:54:09;;;;;;;2.07;1.33;;;;;;;11.72;100.00;101532.66;5053481;28;20485;-66
2021/05/28 06:56:35;;;;;;;1.40;1.30;;;;;;;11.70;100.00;101529.44;5053465;28;20450;-67
2021/05/28 06:59:01;;;;;;;1.63;1.50;;;;;;;11.76;100.00;101532.91;5053560;28;21025;-67
2021/05/28 07:01:28;;;;;;;1.27;0.90;;;;;;;11.72;100.00;101543.53;5053660;28;20502;-66
2021/05/28 07:03:54;;;;;;;1.73;0.93;;;;;;;11.78;100.00;101544.31;5053774;28;20462;-66
2021/05/28 07:06:20;;;;;;;3.07;1.70;;;;;;;11.83;100.00;101536.16;5053578;28;20438;-66
2021/05/28 07:08:46;;;;;;;1.50;1.30;;;;;;;11.97;100.00;101539.81;5053148;28;20480;-66
2021/05/28 07:11:12;;;;;;;1.70;1.20;;;;;;;11.74;100.00;101538.63;5053494;28;20442;-66
2021/05/28 07:13:38;;;;;;;2.50;1.10;;;;;;;11.82;100.00;101535.34;5053409;28;20442;-65
2021/05/28 07:16:04;;;;;;;1.30;1.17;;;;;;;11.88;100.00;101540.72;5053060;28;20985;-66
2021/05/28 07:18:30;;;;;;;1.97;1.30;;;;;;;12.02;100.00;101541.66;5053203;28;20444;-66
2021/05/28 07:20:57;;;;;;;1.30;1.20;;;;;;;12.07;100.00;101552.47;5053184;28;20453;-66
2021/05/28 07:23:25;;;;;;;1.77;1.67;;;;;;;12.20;100.00;101556.41;5053149;28;20441;-66
2021/05/28 07:25:51;;;;;;;2.83;1.57;;;;;;;12.25;100.00;101561.78;5052954;28;20869;-66
2021/05/28 07:28:17;;;;;;;1.30;1.20;;;;;;;12.31;100.00;101566.09;5053303;28;20439;-66
2021/05/28 07:30:43;;;;;;;2.63;2.43;;;;;;;12.42;100.00;101562.13;5053201;28;20452;-66
2021/05/28 07:33:09;;;;;;;2.17;1.70;;;;;;;12.51;100.00;101557.69;5053113;28;20591;-66
2021/05/28 07:35:35;;;;;;;2.00;1.40;;;;;;;12.52;100.00;101577.50;5052988;28;20473;-66
2021/05/28 07:38:02;;;;;;;2.13;0.90;;;;;;;12.57;100.00;101569.28;5052882;28;20951;-66
2021/05/28 07:40:28;;;;;;;1.70;1.23;;;;;;;12.72;100.00;101571.84;5053185;28;20490;-66
2021/05/28 07:42:54;;;;;;;2.03;1.93;;;;;;;12.90;100.00;101572.97;5063131;28;20476;-66
2021/05/28 07:45:20;;;;;;;2.63;1.60;;;;;;;12.91;100.00;101573.78;5072932;28;20457;-65
2021/05/28 07:47:46;;;;;;;2.37;1.50;;;;;;;12.95;100.00;101575.63;5072970;28;20498;-66
2021/05/28 07:50:12;;;;;;;6.83;2.10;;;;;;;12.99;99.82;101573.13;5072654;28;20967;-66
2021/05/28 07:52:38;;;;;;;1.30;1.20;;;;;;;13.01;100.00;101584.50;5072917;28;20449;-66
2021/05/28 07:55:06;;;;;;;1.87;1.57;;;;;;;13.03;99.91;101583.13;5072676;28;20484;-66
2021/05/28 07:57:32;;;;;;;1.60;1.50;;;;;;;13.02;98.35;101580.72;5072983;28;20498;-66
2021/05/28 07:59:58;;;;;;;1.40;1.27;;;;;;;12.98;98.54;101580.50;5072855;28;20489;-66
2021/05/28 08:02:25;;;;;;;3.03;1.30;;;;;;;12.94;97.24;101594.97;5072890;28;20452;-66
2021/05/28 08:04:51;;;;;;;1.93;1.30;;;;;;;13.11;98.42;101596.09;5072894;28;20832;-65
2021/05/28 08:07:17;;;;;;;1.37;1.20;;;;;;;13.14;97.55;101590.03;5073028;28;20452;-65
2021/05/28 08:09:45;;;;;;;1.27;1.17;;;;;;;13.23;97.89;101587.50;5075391;28;20441;-65
2021/05/28 08:12:11;;;;;;;1.17;1.07;;;;;;;13.36;98.10;101589.47;5076768;28;20445;-65
2021/05/28 08:14:38;;;;;;;1.60;1.07;;;;;;;13.47;98.01;101586.63;5076426;28;20985;-65
2021/05/28 08:17:04;;;;;;;2.70;1.83;;;;;;;13.45;96.00;101594.25;5076714;28;20444;-65
2021/05/28 08:19:29;;;;;;;2.57;1.60;;;;;;;13.73;96.62;101578.88;5076550;28;20997;-65
2021/05/28 08:21:55;;;;;;;1.10;1.00;;;;;;;13.88;95.89;101586.78;5076564;28;20441;-65
2021/05/28 08:24:21;;;;;;;1.40;1.20;;;;;;;14.08;94.75;101586.44;5076403;28;20491;-65
2021/05/28 08:26:47;;;;;;;1.67;1.57;;;;;;;14.33;93.87;101587.06;5076115;28;20447;-65
2021/05/28 08:29:14;;;;;;;1.27;1.27;;;;;;;14.61;93.72;101588.72;5076390;28;20441;-65
2021/05/28 08:31:40;;;;;;;0.80;0.80;;;;;;;14.84;91.51;101584.16;5076407;28;20433;-66
2021/05/28 08:34:06;;;;;;;0.97;0.90;;;;;;;14.72;88.35;101578.41;5075848;28;20461;-64
2021/05/28 08:36:32;;;;;;;2.27;1.30;;;;;;;14.85;89.35;101585.75;5076186;28;20441;-66
2021/05/28 08:38:58;;;;;;;0.87;0.87;;;;;;;15.04;88.50;101587.53;5076055;28;20485;-65
2021/05/28 08:41:25;;;;;;;2.10;1.03;;;;;;;15.02;86.43;101587.06;5076116;28;20445;-66
2021/05/28 08:43:51;;;;;;;2.10;1.60;;;;;;;14.84;86.18;101577.91;5076040;28;20463;-66
2021/05/28 08:46:21;;;;;;;0.60;0.60;;;;;;;14.80;85.66;101585.06;5076016;28;20800;-65
2021/05/28 08:48:50;;;;;;;1.30;0.93;;;;;;;14.80;85.30;101580.41;5076095;28;20460;-66
2021/05/28 08:51:16;;;;;;;0.80;0.67;;;;;;;14.60;84.46;101592.53;5076049;28;20441;-65
2021/05/28 08:53:42;;;;;;;1.60;1.20;;;;;;;14.37;84.63;101588.06;5075722;28;20445;-66
2021/05/28 08:56:09;;;;;;;0.80;0.50;;;;;;;14.32;85.68;101591.69;5075871;28;20456;-65
2021/05/28 08:58:35;;;;;;;0.90;0.90;;;;;;;14.25;87.66;101602.16;5075791;28;20543;-65
2021/05/28 09:01:02;;;;;;;0.70;0.70;;;;;;;13.93;91.41;101613.91;5075675;28;20866;-66
2021/05/28 09:03:31;;;;;;;0.80;0.77;;;;;;;13.40;94.30;101616.13;5075358;28;20445;-66
2021/05/28 09:06:00;;;;;;;0.50;0.40;;;;;;;13.00;97.12;101620.97;5075701;28;20468;-67
2021/05/28 09:08:27;;;;;;;1.00;0.60;;;;;;;12.76;98.90;101613.66;5075621;28;20503;-67
2021/05/28 09:11:02;;;;;;;3.60;1.30;;;;;;;12.83;100.00;101611.38;5075736;28;20442;-66
2021/05/28 09:13:28;;;;;;;0.73;0.70;;;;;;;12.83;100.00;101613.31;5075521;28;20421;-68
2021/05/28 09:16:09;;;;;;;2.30;0.60;;;;;;;12.95;100.00;101613.69;5075592;28;20463;-67
2021/05/28 09:18:47;;;;;;;1.57;1.00;;;;;;;13.06;100.00;101598.06;5075587;28;20428;-67
2021/05/28 09:21:19;;;;;;;0.80;0.80;;;;;;;13.23;100.00;101594.84;5075475;28;20437;-66
2021/05/28 09:23:45;;;;;;;1.23;0.77;;;;;;;13.40;100.00;101597.06;5075579;28;20496;-66
2021/05/28 09:26:12;;;;;;;0.60;0.60;;;;;;;13.48;100.00;101599.94;5074626;28;20437;-66
2021/05/28 09:28:41;;;;;;;0.83;0.83;;;;;;;13.74;100.00;101600.34;5060224;28;20461;-67
2021/05/28 09:31:09;;;;;;;0.60;0.50;;;;;;;14.06;100.00;101594.06;5055386;28;20493;-65
2021/05/28 09:33:37;;;;;;;2.40;0.80;;;;;;;14.33;100.00;101593.31;5055226;28;20825;-66
2021/05/28 09:36:15;;;;;;;0.70;0.50;;;;;;;14.58;98.22;101592.03;5055534;28;20442;-66
2021/05/28 09:38:57;;;;;;;0.90;0.80;;;;;;;14.82;97.34;101594.53;5054903;28;20880;-66
2021/05/28 09:41:42;;;;;;;1.13;0.60;;;;;;;14.98;94.29;101596.97;5055212;28;20429;-65
2021/05/28 09:44:14;;;;;;;0.60;0.60;;;;;;;14.96;93.55;101594.53;5054928;28;21040;-65
2021/05/28 09:47:04;;;;;;;1.87;0.83;;;;;;;15.15;93.72;101597.13;5055042;28;20434;-66
2021/05/28 09:49:37;;;;;;;1.00;0.60;;;;;;;15.15;92.19;101591.69;5055034;28;20430;-66
2021/05/28 09:52:16;;;;;;;0.97;0.70;;;;;;;15.31;92.28;101598.38;5055095;28;20431;-66
2021/05/28 09:54:55;;;;;;;1.23;0.97;;;;;;;15.53;91.20;101597.59;5072784;23;20530;-71
2021/05/28 09:57:32;;;;;;;0.70;0.60;;;;;;;15.47;87.80;101587.13;5034860;28;20430;-71
2021/05/28 09:59:59;;;;;;;0.70;0.70;;;;;;;15.34;87.64;101586.88;5034529;28;20489;-71
2021/05/28 10:02:29;;;;;;;1.00;0.80;;;;;;;15.13;88.47;101591.97;5034300;28;20893;-70
2021/05/28 10:04:57;;;;;;;0.97;0.73;;;;;;;15.09;90.41;101592.88;5043004;28;20470;-70
2021/05/28 10:07:25;;;;;;;0.67;0.60;;;;;;;15.09;91.38;101596.41;5054498;28;20813;-71
2021/05/28 10:09:53;;;;;;;1.17;0.60;;;;;;;15.16;90.18;101596.03;5054729;28;20564;-71
2021/05/28 10:12:19;;;;;;;0.80;0.63;;;;;;;15.30;90.78;101594.06;5054437;28;20791;-71
2021/05/28 10:14:46;;;;;;;1.27;0.90;;;;;;;15.37;89.09;101602.63;5054352;28;20470;-71
2021/05/28 10:17:12;;;;;;;1.00;0.70;;;;;;;15.57;89.29;101600.53;5054437;28;20454;-71
2021/05/28 10:19:41;;;;;;;1.90;0.80;;;;;;;15.75;85.67;101591.38;5054323;28;20488;-71
2021/05/28 10:22:07;;;;;;;0.50;0.50;;;;;;;15.95;85.73;101597.47;5054385;28;20493;-71
2021/05/28 10:24:34;;;;;;;0.80;0.43;;;;;;;16.03;85.82;101593.97;5054302;28;20462;-71
2021/05/28 10:27:00;;;;;;;0.93;0.60;;;;;;;15.86;80.73;101595.47;5053882;28;20819;-71
2021/05/28 10:29:27;;;;;;;1.00;0.63;;;;;;;15.74;82.63;101597.16;5054050;28;20492;-71
2021/05/28 10:31:57;;;;;;;0.50;0.50;;;;;;;15.67;79.97;101605.81;5053670;28;20447;-70
2021/05/28 10:34:24;;;;;;;1.53;0.57;;;;;;;15.50;83.24;101609.16;5054054;28;20830;-71
2021/05/28 10:36:51;;;;;;;0.70;0.70;;;;;;;15.45;84.65;101605.72;5053937;28;20443;-70
2021/05/28 10:39:18;;;;;;;0.63;0.47;;;;;;;15.47;84.66;101598.84;5053831;28;20482;-71
2021/05/28 10:41:47;;;;;;;0.70;0.53;;;;;;;15.57;85.26;101606.81;5053727;28;20481;-70
2021/05/28 10:44:16;;;;;;;0.50;0.40;;;;;;;15.55;85.19;101605.50;5053546;28;20446;-71
2021/05/28 10:47:18;;;;;;;0.63;0.60;;;;;;;15.49;84.99;101607.53;5053686;28;20442;-70
2021/05/28 10:49:45;;;;;;;0.60;0.53;;;;;;;15.55;86.31;101605.50;5053756;28;20776;-70
2021/05/28 10:52:14;;;;;;;3.53;0.70;;;;;;;15.63;86.98;101602.03;5053653;28;20827;-69
2021/05/28 10:54:53;;;;;;;0.90;0.60;;;;;;;15.76;85.26;101616.75;5053504;28;20474;-70
2021/05/28 10:57:29;;;;;;;2.00;1.00;;;;;;;15.89;84.43;101604.97;5053694;28;20485;-70
2021/05/28 10:59:57;;;;;;;0.80;0.73;;;;;;;16.00;83.74;101594.59;5053622;28;20524;-71
2021/05/28 11:02:46;;;;;;;0.60;0.50;;;;;;;15.98;82.53;101603.13;5053435;28;20450;-70
2021/05/28 11:05:13;;;;;;;0.50;0.40;;;;;;;15.99;82.77;101599.25;5055689;28;20492;-71
2021/05/28 11:07:43;;;;;;;0.60;0.60;;;;;;;15.95;82.44;101611.94;5073208;28;20430;-72
2021/05/28 11:10:26;;;;;;;1.00;0.77;;;;;;;16.04;83.36;101609.25;5073400;28;20437;-71
2021/05/28 11:12:54;;;;;;;0.97;0.67;;;;;;;16.13;83.29;101593.72;5073419;28;20422;-71
2021/05/28 11:15:27;;;;;;;0.87;0.50;;;;;;;16.46;81.57;101604.31;5073295;28;20846;-71
2021/05/28 11:17:56;;;;;;;0.70;0.70;;;;;;;16.89;79.66;101597.06;5073530;28;20441;-71
2021/05/28 11:20:25;;;;;;;0.87;0.50;;;;;;;17.30;77.57;101603.25;5073372;28;20485;-72
2021/05/28 11:22:51;;;;;;;0.70;0.67;;;;;;;17.78;75.10;101605.03;5073440;28;20453;-72
2021/05/28 11:25:19;;;;;;;0.90;0.60;;;;;;;18.21;72.14;101602.19;5072929;28;20511;-71